Time,TemperatureF,DewpointF,PressureIn,WindDirection,WindDirectionDegrees,WindSpeedMPH,WindSpeedGustMPH,Humidity,HourlyPrecipIn,Conditions,Clouds,dailyrainin,SoftwareType,DateUTC
2013-07-16 00:12:00,78.0,-99.9,-100.00,SSW,193,0.0,-999.0,-999,-99.99,,,-99.99,,2013-07-16 04:12:00,
2013-07-16 00:43:00,78.0,-99.9,-100.00,SSW,194,0.0,-999.0,-999,-99.99,,,-99.99,,2013-07-16 04:43:00,
2013-07-16 00:53:00,78.0,-99.9,-100.00,SSW,193,0.0,-999.0,-999,-99.99,,,-99.99,,2013-07-16 04:53:00,
2013-07-16 01:11:00,77.0,-99.9,-100.00,SSW,193,0.0,-999.0,-999,-99.99,,,-99.99,,2013-07-16 05:11:00,
2013-07-16 01:22:00,77.0,-99.9,-100.00,SSW,193,0.0,-999.0,-999,-99.99,,,-99.99,,2013-07-16 05:22:00,
2013-07-16 01:32:00,77.0,-99.9,-100.00,SSW,193,0.0,-999.0,-999,-99.99,,,-99.99,,2013-07-16 05:32:00,
2013-07-16 01:43:00,77.0,-99.9,-100.00,SSW,193,0.0,-999.0,-999,-99.99,,,-99.99,,2013-07-16 05:43:00,
2013-07-16 01:52:00,77.0,-99.9,-100.00,SSW,193,0.0,-999.0,-999,-99.99,,,-99.99,,2013-07-16 05:52:00,
2013-07-16 02:01:00,77.0,-99.9,-100.00,SSW,193,0.0,-999.0,-999,-99.99,,,-99.99,,2013-07-16 06:01:00,
2013-07-16 02:12:00,76.0,-99.9,-100.00,SSW,193,0.0,-999.0,-999,-99.99,,,-99.99,,2013-07-16 06:12:00,
2013-07-16 02:22:00,76.0,-99.9,-100.00,SSW,193,0.0,-999.0,-999,-99.99,,,-99.99,,2013-07-16 06:22:00,
2013-07-16 02:32:00,76.0,-99.9,-100.00,SSW,193,0.0,-999.0,-999,-99.99,,,-99.99,,2013-07-16 06:32:00,
2013-07-16 02:43:00,76.0,-99.9,-100.00,SSW,193,0.0,-999.0,-999,-99.99,,,-99.99,,2013-07-16 06:43:00,
2013-07-16 02:52:00,76.0,-99.9,-100.00,SSW,194,0.0,-999.0,-999,-99.99,,,-99.99,,2013-07-16 06:52:00,
2013-07-16 03:01:00,75.0,-99.9,-100.00,SSW,193,0.0,-999.0,-999,-99.99,,,-99.99,,2013-07-16 07:01:00,
2013-07-16 03:12:00,75.0,-99.9,-100.00,SSW,193,0.0,-999.0,-999,-99.99,,,-99.99,,2013-07-16 07:12:00,
2013-07-16 03:22:00,75.0,-99.9,-100.00,SSW,193,0.0,-999.0,-999,-99.99,,,-99.99,,2013-07-16 07:22:00,
2013-07-16 03:32:00,75.0,-99.9,-100.00,SSW,193,0.0,-999.0,-999,-99.99,,,-99.99,,2013-07-16 07:32:00,
2013-07-16 03:43:00,75.0,-99.9,-100.00,SSW,193,0.0,-999.0,-999,-99.99,,,-99.99,,2013-07-16 07:43:00,
2013-07-16 03:53:00,75.0,-99.9,-100.00,SSW,193,0.0,-999.0,-999,-99.99,,,-99.99,,2013-07-16 07:53:00,
2013-07-16 04:01:00,74.0,-99.9,-100.00,SSW,193,0.0,-999.0,-999,-99.99,,,-99.99,,2013-07-16 08:01:00,
2013-07-16 04:11:00,74.0,-99.9,-100.00,SSW,193,0.0,-999.0,-999,-99.99,,,-99.99,,2013-07-16 08:11:00,
2013-07-16 04:22:00,74.0,-99.9,-100.00,SSW,193,0.0,-999.0,-999,-99.99,,,-99.99,,2013-07-16 08:22:00,
2013-07-16 04:32:00,74.0,-99.9,-100.00,SSW,193,0.0,-999.0,-999,-99.99,,,-99.99,,2013-07-16 08:32:00,
2013-07-16 04:43:00,74.0,-99.9,-100.00,SSW,193,0.0,-999.0,-999,-99.99,,,-99.99,,2013-07-16 08:43:00,
2013-07-16 04:52:00,74.0,-99.9,-100.00,SSW,193,0.0,-999.0,-999,-99.99,,,-99.99,,2013-07-16 08:52:00,
2013-07-16 05:01:00,74.0,-99.9,-100.00,SSW,193,0.0,-999.0,-999,-99.99,,,-99.99,,2013-07-16 09:01:00,
2013-07-16 05:22:00,74.0,-99.9,-100.00,SSW,193,0.0,-999.0,-999,-99.99,,,-99.99,,2013-07-16 09:22:00,
2013-07-16 05:32:00,74.0,-99.9,-100.00,SSW,193,0.0,-999.0,-999,-99.99,,,-99.99,,2013-07-16 09:32:00,
2013-07-16 05:42:00,73.0,-99.9,-100.00,SSW,193,0.0,-999.0,-999,-99.99,,,-99.99,,2013-07-16 09:42:00,
2013-07-16 05:52:00,73.0,-99.9,-100.00,SSW,193,0.0,-999.0,-999,-99.99,,,-99.99,,2013-07-16 09:52:00,
2013-07-16 06:01:00,73.0,-99.9,-100.00,SSW,193,0.0,-999.0,-999,-99.99,,,-99.99,,2013-07-16 10:01:00,
2013-07-16 06:11:00,73.0,-99.9,-100.00,SSW,193,0.0,-999.0,-999,-99.99,,,-99.99,,2013-07-16 10:11:00,
2013-07-16 06:32:00,73.0,-99.9,-100.00,SSW,193,0.0,-999.0,-999,-99.99,,,-99.99,,2013-07-16 10:32:00,
2013-07-16 06:43:00,73.0,-99.9,-100.00,SSW,193,0.0,-999.0,-999,-99.99,,,-99.99,,2013-07-16 10:43:00,
2013-07-16 06:52:00,73.0,-99.9,-100.00,SSW,193,0.0,-999.0,-999,-99.99,,,-99.99,,2013-07-16 10:52:00,
2013-07-16 07:01:00,73.0,-99.9,-100.00,SSW,193,0.0,-999.0,-999,-99.99,,,-99.99,,2013-07-16 11:01:00,
2013-07-16 07:11:00,73.0,-99.9,-100.00,SSW,193,0.0,-999.0,-999,-99.99,,,-99.99,,2013-07-16 11:11:00,
2013-07-16 07:32:00,73.0,-99.9,-100.00,SSW,193,0.0,-999.0,-999,-99.99,,,-99.99,,2013-07-16 11:32:00,
2013-07-16 07:42:00,74.0,-99.9,-100.00,SSW,193,0.0,-999.0,-999,-99.99,,,-99.99,,2013-07-16 11:42:00,
2013-07-16 07:53:00,76.0,-99.9,-100.00,SSW,193,0.0,-999.0,-999,-99.99,,,-99.99,,2013-07-16 11:53:00,
2013-07-16 08:01:00,76.0,-99.9,-100.00,SSW,193,0.0,-999.0,-999,-99.99,,,-99.99,,2013-07-16 12:01:00,
2013-07-16 08:11:00,77.0,-99.9,-100.00,SSW,193,0.0,-999.0,-999,-99.99,,,-99.99,,2013-07-16 12:11:00,
2013-07-16 08:32:00,77.0,-99.9,-100.00,SSW,193,0.0,-999.0,-999,-99.99,,,-99.99,,2013-07-16 12:32:00,
2013-07-16 08:43:00,77.0,-99.9,-100.00,SSW,193,0.0,-999.0,-999,-99.99,,,-99.99,,2013-07-16 12:43:00,
2013-07-16 08:53:00,77.0,-99.9,-100.00,SSW,193,0.0,-999.0,-999,-99.99,,,-99.99,,2013-07-16 12:53:00,
2013-07-16 10:22:00,84.0,-99.9,-100.00,SSW,195,2.0,-999.0,-999,-99.99,,,-99.99,,2013-07-16 14:22:00,
2013-07-16 10:43:00,84.0,-99.9,-100.00,SSW,195,0.0,-999.0,-999,-99.99,,,-99.99,,2013-07-16 14:43:00,
2013-07-16 10:52:00,84.0,-99.9,-100.00,SSW,197,0.0,-999.0,-999,-99.99,,,-99.99,,2013-07-16 14:52:00,
2013-07-16 11:02:00,84.0,-99.9,-100.00,SSW,197,0.0,-999.0,-999,-99.99,,,-99.99,,2013-07-16 15:02:00,
2013-07-16 11:12:00,85.0,-99.9,-100.00,SSW,197,0.0,-999.0,-999,-99.99,,,-99.99,,2013-07-16 15:12:00,
2013-07-16 11:22:00,86.0,-99.9,-100.00,SSW,199,0.0,-999.0,-999,-99.99,,,-99.99,,2013-07-16 15:22:00,
2013-07-16 11:43:00,86.0,-99.9,-100.00,SSW,201,4.0,-999.0,-999,-99.99,,,-99.99,,2013-07-16 15:43:00,
2013-07-16 11:53:00,87.0,-99.9,-100.00,SSW,202,0.0,-999.0,-999,-99.99,,,-99.99,,2013-07-16 15:53:00,
2013-07-16 12:01:00,87.0,-99.9,-100.00,SSW,202,0.0,-999.0,-999,-99.99,,,-99.99,,2013-07-16 16:01:00,
2013-07-16 12:11:00,87.0,-99.9,-100.00,SSW,202,0.0,-999.0,-999,-99.99,,,-99.99,,2013-07-16 16:11:00,
2013-07-16 12:32:00,88.0,-99.9,-100.00,SSW,203,0.0,-999.0,-999,-99.99,,,-99.99,,2013-07-16 16:32:00,
2013-07-16 12:43:00,89.0,-99.9,-100.00,SW,232,0.0,-999.0,-999,-99.99,,,-99.99,,2013-07-16 16:43:00,
2013-07-16 12:52:00,86.0,-99.9,-100.00,North,0,1.0,-999.0,-999,-99.99,,,-99.99,,2013-07-16 16:52:00,
2013-07-16 13:02:00,86.0,-99.9,-100.00,North,0,1.0,-999.0,-999,-99.99,,,-99.99,,2013-07-16 17:02:00,
2013-07-16 13:12:00,87.0,-99.9,-100.00,North,352,0.0,-999.0,-999,-99.99,,,-99.99,,2013-07-16 17:12:00,
2013-07-16 13:22:00,87.0,-99.9,-100.00,WSW,254,2.0,-999.0,-999,-99.99,,,-99.99,,2013-07-16 17:22:00,
2013-07-16 13:43:00,87.0,-99.9,-100.00,NNW,329,0.0,-999.0,-999,-99.99,,,-99.99,,2013-07-16 17:43:00,
2013-07-16 13:53:00,88.0,-99.9,-100.00,SW,222,0.0,-999.0,-999,-99.99,,,-99.99,,2013-07-16 17:53:00,
2013-07-16 14:02:00,88.0,-99.9,-100.00,SW,222,0.0,-999.0,-999,-99.99,,,-99.99,,2013-07-16 18:02:00,
2013-07-16 14:11:00,92.0,-99.9,-100.00,South,187,0.0,-999.0,-999,-99.99,,,-99.99,,2013-07-16 18:11:00,
2013-07-16 14:22:00,87.0,-99.9,-100.00,North,0,4.0,-999.0,-999,-99.99,,,-99.99,,2013-07-16 18:22:00,
2013-07-16 14:43:00,89.0,-99.9,-100.00,West,269,0.0,-999.0,-999,-99.99,,,-99.99,,2013-07-16 18:43:00,
2013-07-16 14:53:00,90.0,-99.9,-100.00,North,5,0.0,-999.0,-999,-99.99,,,-99.99,,2013-07-16 18:53:00,
2013-07-16 15:11:00,88.0,-99.9,-100.00,NNE,12,2.0,-999.0,-999,-99.99,,,-99.99,,2013-07-16 19:11:00,
2013-07-16 15:22:00,91.0,-99.9,-100.00,NW,323,0.0,-999.0,-999,-99.99,,,-99.99,,2013-07-16 19:22:00,
2013-07-16 15:43:00,91.0,-99.9,-100.00,NW,322,1.0,-999.0,-999,-99.99,,,-99.99,,2013-07-16 19:43:00,
2013-07-16 15:53:00,92.0,-99.9,-100.00,NW,323,0.0,-999.0,-999,-99.99,,,-99.99,,2013-07-16 19:53:00,
2013-07-16 16:03:00,92.0,-99.9,-100.00,NW,323,0.0,-999.0,-999,-99.99,,,-99.99,,2013-07-16 20:03:00,
2013-07-16 16:12:00,91.0,-99.9,-100.00,NW,321,0.0,-999.0,-999,-99.99,,,-99.99,,2013-07-16 20:12:00,
2013-07-16 16:32:00,90.0,-99.9,-100.00,SW,230,0.0,-999.0,-999,-99.99,,,-99.99,,2013-07-16 20:32:00,
2013-07-16 16:43:00,90.0,-99.9,-100.00,NNW,330,0.0,-999.0,-999,-99.99,,,-99.99,,2013-07-16 20:43:00,
2013-07-16 16:52:00,91.0,-99.9,-100.00,NW,319,0.0,-999.0,-999,-99.99,,,-99.99,,2013-07-16 20:52:00,
2013-07-16 17:02:00,91.0,-99.9,-100.00,NW,319,0.0,-999.0,-999,-99.99,,,-99.99,,2013-07-16 21:02:00,
2013-07-16 17:11:00,90.0,-99.9,-100.00,West,259,1.0,-999.0,-999,-99.99,,,-99.99,,2013-07-16 21:11:00,
2013-07-16 17:32:00,90.0,-99.9,-100.00,West,264,0.0,-999.0,-999,-99.99,,,-99.99,,2013-07-16 21:32:00,
2013-07-16 17:43:00,89.0,-99.9,-100.00,West,262,0.0,-999.0,-999,-99.99,,,-99.99,,2013-07-16 21:43:00,
2013-07-16 17:52:00,89.0,-99.9,-100.00,West,262,0.0,-999.0,-999,-99.99,,,-99.99,,2013-07-16 21:52:00,
2013-07-16 18:01:00,89.0,-99.9,-100.00,WSW,241,0.0,-999.0,-999,-99.99,,,-99.99,,2013-07-16 22:01:00,
2013-07-16 18:11:00,90.0,-99.9,-100.00,West,276,0.0,-999.0,-999,-99.99,,,-99.99,,2013-07-16 22:11:00,
2013-07-16 18:33:00,89.0,-99.9,-100.00,North,0,0.0,-999.0,-999,-99.99,,,-99.99,,2013-07-16 22:33:00,
2013-07-16 18:43:00,89.0,-99.9,-100.00,West,270,0.0,-999.0,-999,-99.99,,,-99.99,,2013-07-16 22:43:00,
2013-07-16 18:53:00,88.0,-99.9,-100.00,West,269,2.0,-999.0,-999,-99.99,,,-99.99,,2013-07-16 22:53:00,
2013-07-16 19:02:00,88.0,-99.9,-100.00,West,269,2.0,-999.0,-999,-99.99,,,-99.99,,2013-07-16 23:02:00,
2013-07-16 19:11:00,89.0,-99.9,-100.00,West,274,0.0,-999.0,-999,-99.99,,,-99.99,,2013-07-16 23:11:00,
2013-07-16 19:22:00,89.0,-99.9,-100.00,West,277,0.0,-999.0,-999,-99.99,,,-99.99,,2013-07-16 23:22:00,
2013-07-16 19:32:00,89.0,-99.9,-100.00,West,277,0.0,-999.0,-999,-99.99,,,-99.99,,2013-07-16 23:32:00,
2013-07-16 19:43:00,88.0,-99.9,-100.00,West,281,0.0,-999.0,-999,-99.99,,,-99.99,,2013-07-16 23:43:00,
2013-07-16 19:52:00,88.0,-99.9,-100.00,West,281,0.0,-999.0,-999,-99.99,,,-99.99,,2013-07-16 23:52:00,
2013-07-16 20:01:00,88.0,-99.9,-100.00,West,280,0.0,-999.0,-999,-99.99,,,-99.99,,2013-07-17 00:01:00,
2013-07-16 20:12:00,88.0,-99.9,-100.00,West,280,0.0,-999.0,-999,-99.99,,,-99.99,,2013-07-17 00:12:00,
2013-07-16 20:22:00,87.0,-99.9,-100.00,West,281,0.0,-999.0,-999,-99.99,,,-99.99,,2013-07-17 00:22:00,
2013-07-16 20:33:00,87.0,-99.9,-100.00,West,280,0.0,-999.0,-999,-99.99,,,-99.99,,2013-07-17 00:33:00,
2013-07-16 20:42:00,87.0,-99.9,-100.00,West,280,0.0,-999.0,-999,-99.99,,,-99.99,,2013-07-17 00:42:00,
2013-07-16 20:52:00,86.0,-99.9,-100.00,West,280,0.0,-999.0,-999,-99.99,,,-99.99,,2013-07-17 00:52:00,
2013-07-16 21:01:00,86.0,-99.9,-100.00,West,281,0.0,-999.0,-999,-99.99,,,-99.99,,2013-07-17 01:01:00,
2013-07-16 21:12:00,86.0,-99.9,-100.00,West,281,0.0,-999.0,-999,-99.99,,,-99.99,,2013-07-17 01:12:00,
2013-07-16 21:22:00,85.0,-99.9,-100.00,West,280,0.0,-999.0,-999,-99.99,,,-99.99,,2013-07-17 01:22:00,
2013-07-16 21:32:00,84.0,-99.9,-100.00,West,281,0.0,-999.0,-999,-99.99,,,-99.99,,2013-07-17 01:32:00,
2013-07-16 21:43:00,84.0,-99.9,-100.00,West,281,0.0,-999.0,-999,-99.99,,,-99.99,,2013-07-17 01:43:00,
2013-07-16 21:53:00,84.0,-99.9,-100.00,West,280,0.0,-999.0,-999,-99.99,,,-99.99,,2013-07-17 01:53:00,
2013-07-16 22:11:00,83.0,-99.9,-100.00,West,280,0.0,-999.0,-999,-99.99,,,-99.99,,2013-07-17 02:11:00,
2013-07-16 22:32:00,83.0,-99.9,-100.00,West,280,0.0,-999.0,-999,-99.99,,,-99.99,,2013-07-17 02:32:00,
2013-07-16 22:43:00,82.0,-99.9,-100.00,West,281,0.0,-999.0,-999,-99.99,,,-99.99,,2013-07-17 02:43:00,
2013-07-16 22:53:00,81.0,-99.9,-100.00,West,281,0.0,-999.0,-999,-99.99,,,-99.99,,2013-07-17 02:53:00,
2013-07-16 23:01:00,81.0,-99.9,-100.00,West,281,0.0,-999.0,-999,-99.99,,,-99.99,,2013-07-17 03:01:00,
2013-07-16 23:11:00,81.0,-99.9,-100.00,West,280,0.0,-999.0,-999,-99.99,,,-99.99,,2013-07-17 03:11:00,
2013-07-16 23:32:00,81.0,-99.9,-100.00,West,281,0.0,-999.0,-999,-99.99,,,-99.99,,2013-07-17 03:32:00,
2013-07-16 23:43:00,80.0,-99.9,-100.00,West,281,0.0,-999.0,-999,-99.99,,,-99.99,,2013-07-17 03:43:00,
2013-07-16 23:53:00,80.0,-99.9,-100.00,West,281,0.0,-999.0,-999,-99.99,,,-99.99,,2013-07-17 03:53:00,